sensor_id;sensor_type;location;lat;lon;timestamp;temperature;humidity
72591;SHT31;60625;51.212;5.952;2022-09-09T00:14:23;17.07;77.54
72591;SHT31;60625;51.212;5.952;2022-09-09T00:25:23;16.86;77.60
72591;SHT31;60625;51.212;5.952;2022-09-09T00:30:38;16.88;77.71
72591;SHT31;60625;51.212;5.952;2022-09-09T00:35:39;16.88;77.70
72591;SHT31;60625;51.212;5.952;2022-09-09T00:40:48;16.78;78.11
72591;SHT31;60625;51.212;5.952;2022-09-09T00:51:01;16.73;78.46
72591;SHT31;60625;51.212;5.952;2022-09-09T00:56:20;16.75;78.54
72591;SHT31;60625;51.212;5.952;2022-09-09T01:01:30;16.73;78.68
72591;SHT31;60625;51.212;5.952;2022-09-09T01:06:32;16.67;78.94
72591;SHT31;60625;51.212;5.952;2022-09-09T01:12:01;16.72;78.90
72591;SHT31;60625;51.212;5.952;2022-09-09T01:17:21;16.76;78.71
72591;SHT31;60625;51.212;5.952;2022-09-09T01:22:40;16.71;78.77
72591;SHT31;60625;51.212;5.952;2022-09-09T01:27:51;16.67;78.89
72591;SHT31;60625;51.212;5.952;2022-09-09T01:32:57;16.64;78.78
72591;SHT31;60625;51.212;5.952;2022-09-09T01:38:01;16.52;78.89
72591;SHT31;60625;51.212;5.952;2022-09-09T01:43:02;16.45;79.24
72591;SHT31;60625;51.212;5.952;2022-09-09T01:48:03;16.43;79.39
72591;SHT31;60625;51.212;5.952;2022-09-09T01:53:20;16.50;79.38
72591;SHT31;60625;51.212;5.952;2022-09-09T02:03:29;16.56;79.51
72591;SHT31;60625;51.212;5.952;2022-09-09T02:08:52;16.57;79.53
72591;SHT31;60625;51.212;5.952;2022-09-09T02:14:00;16.61;79.50
72591;SHT31;60625;51.212;5.952;2022-09-09T02:19:11;16.65;79.46
72591;SHT31;60625;51.212;5.952;2022-09-09T02:24:49;16.49;79.89
72591;SHT31;60625;51.212;5.952;2022-09-09T02:29:57;16.45;80.08
72591;SHT31;60625;51.212;5.952;2022-09-09T02:35:17;16.44;80.29
72591;SHT31;60625;51.212;5.952;2022-09-09T02:40:21;16.42;80.25
72591;SHT31;60625;51.212;5.952;2022-09-09T02:45:41;16.41;80.36
72591;SHT31;60625;51.212;5.952;2022-09-09T02:50:55;16.43;80.46
72591;SHT31;60625;51.212;5.952;2022-09-09T02:56:15;16.51;80.31
72591;SHT31;60625;51.212;5.952;2022-09-09T03:01:20;16.58;80.18
72591;SHT31;60625;51.212;5.952;2022-09-09T03:06:21;16.55;80.28
72591;SHT31;60625;51.212;5.952;2022-09-09T03:11:27;16.55;80.39
72591;SHT31;60625;51.212;5.952;2022-09-09T03:16:29;16.62;80.32
72591;SHT31;60625;51.212;5.952;2022-09-09T03:21:30;16.67;80.22
72591;SHT31;60625;51.212;5.952;2022-09-09T03:26:30;16.65;80.29
72591;SHT31;60625;51.212;5.952;2022-09-09T03:31:35;16.61;80.43
72591;SHT31;60625;51.212;5.952;2022-09-09T03:36:37;16.63;80.44
72591;SHT31;60625;51.212;5.952;2022-09-09T03:41:38;16.58;80.60
72591;SHT31;60625;51.212;5.952;2022-09-09T03:46:39;16.56;80.68
72591;SHT31;60625;51.212;5.952;2022-09-09T03:51:41;16.57;80.74
72591;SHT31;60625;51.212;5.952;2022-09-09T03:56:43;16.65;80.65
72591;SHT31;60625;51.212;5.952;2022-09-09T04:01:45;16.69;80.46
72591;SHT31;60625;51.212;5.952;2022-09-09T04:06:47;16.65;80.43
72591;SHT31;60625;51.212;5.952;2022-09-09T04:11:48;16.59;80.61
72591;SHT31;60625;51.212;5.952;2022-09-09T04:16:50;16.68;80.43
72591;SHT31;60625;51.212;5.952;2022-09-09T04:21:50;16.70;80.38
72591;SHT31;60625;51.212;5.952;2022-09-09T04:26:52;16.69;80.47
72591;SHT31;60625;51.212;5.952;2022-09-09T04:31:52;16.75;80.56
72591;SHT31;60625;51.212;5.952;2022-09-09T04:36:53;16.85;80.51
72591;SHT31;60625;51.212;5.952;2022-09-09T04:41:55;16.97;80.29
72591;SHT31;60625;51.212;5.952;2022-09-09T04:46:56;16.99;80.21
72591;SHT31;60625;51.212;5.952;2022-09-09T04:51:58;16.96;80.36
72591;SHT31;60625;51.212;5.952;2022-09-09T04:56:59;17.00;80.43
72591;SHT31;60625;51.212;5.952;2022-09-09T05:01:59;17.08;80.21
72591;SHT31;60625;51.212;5.952;2022-09-09T05:07:01;17.16;79.77
72591;SHT31;60625;51.212;5.952;2022-09-09T05:12:02;17.16;79.65
72591;SHT31;60625;51.212;5.952;2022-09-09T05:17:09;17.00;79.90
72591;SHT31;60625;51.212;5.952;2022-09-09T05:22:11;16.93;80.07
72591;SHT31;60625;51.212;5.952;2022-09-09T05:27:17;16.99;79.85
72591;SHT31;60625;51.212;5.952;2022-09-09T05:32:20;17.08;79.64
72591;SHT31;60625;51.212;5.952;2022-09-09T05:37:22;17.05;79.60
72591;SHT31;60625;51.212;5.952;2022-09-09T05:42:24;16.92;79.94
72591;SHT31;60625;51.212;5.952;2022-09-09T05:47:24;16.90;79.96
72591;SHT31;60625;51.212;5.952;2022-09-09T05:52:28;16.94;79.82
72591;SHT31;60625;51.212;5.952;2022-09-09T05:57:29;16.96;79.77
72591;SHT31;60625;51.212;5.952;2022-09-09T06:02:30;17.00;79.63
72591;SHT31;60625;51.212;5.952;2022-09-09T06:07:34;17.01;79.71
72591;SHT31;60625;51.212;5.952;2022-09-09T06:12:36;17.05;79.61
72591;SHT31;60625;51.212;5.952;2022-09-09T06:17:36;17.10;79.27
72591;SHT31;60625;51.212;5.952;2022-09-09T06:22:39;17.11;79.18
72591;SHT31;60625;51.212;5.952;2022-09-09T06:27:41;17.14;78.97
72591;SHT31;60625;51.212;5.952;2022-09-09T06:32:43;17.23;78.58
72591;SHT31;60625;51.212;5.952;2022-09-09T06:37:45;17.27;78.28
72591;SHT31;60625;51.212;5.952;2022-09-09T06:42:49;17.25;78.38
72591;SHT31;60625;51.212;5.952;2022-09-09T06:48:08;17.32;78.01
72591;SHT31;60625;51.212;5.952;2022-09-09T06:53:09;17.48;77.65
72591;SHT31;60625;51.212;5.952;2022-09-09T06:58:09;17.64;77.43
72591;SHT31;60625;51.212;5.952;2022-09-09T07:03:10;17.77;77.11
72591;SHT31;60625;51.212;5.952;2022-09-09T07:08:11;17.79;77.01
72591;SHT31;60625;51.212;5.952;2022-09-09T07:13:13;17.79;76.75
72591;SHT31;60625;51.212;5.952;2022-09-09T07:18:15;17.74;76.32
72591;SHT31;60625;51.212;5.952;2022-09-09T07:23:16;17.82;76.52
72591;SHT31;60625;51.212;5.952;2022-09-09T07:28:17;17.99;76.29
72591;SHT31;60625;51.212;5.952;2022-09-09T07:33:17;18.18;75.36
72591;SHT31;60625;51.212;5.952;2022-09-09T07:38:20;18.38;75.04
72591;SHT31;60625;51.212;5.952;2022-09-09T07:43:25;18.63;74.39
72591;SHT31;60625;51.212;5.952;2022-09-09T07:48:27;18.92;73.44
72591;SHT31;60625;51.212;5.952;2022-09-09T07:53:28;19.24;72.81
72591;SHT31;60625;51.212;5.952;2022-09-09T07:58:31;19.35;71.54
72591;SHT31;60625;51.212;5.952;2022-09-09T08:03:32;19.19;71.12
72591;SHT31;60625;51.212;5.952;2022-09-09T08:08:33;19.03;70.31
72591;SHT31;60625;51.212;5.952;2022-09-09T08:13:36;18.85;69.97
72591;SHT31;60625;51.212;5.952;2022-09-09T08:18:39;18.73;70.83
72591;SHT31;60625;51.212;5.952;2022-09-09T08:23:40;18.65;71.00
72591;SHT31;60625;51.212;5.952;2022-09-09T08:28:43;18.70;70.44
72591;SHT31;60625;51.212;5.952;2022-09-09T08:33:44;18.78;69.47
72591;SHT31;60625;51.212;5.952;2022-09-09T08:38:48;18.91;69.13
72591;SHT31;60625;51.212;5.952;2022-09-09T08:43:58;19.03;68.78
72591;SHT31;60625;51.212;5.952;2022-09-09T08:54:56;19.23;68.68
72591;SHT31;60625;51.212;5.952;2022-09-09T09:00:13;19.19;67.89
72591;SHT31;60625;51.212;5.952;2022-09-09T09:10:47;19.20;67.68
72591;SHT31;60625;51.212;5.952;2022-09-09T09:16:03;19.20;67.51
72591;SHT31;60625;51.212;5.952;2022-09-09T09:21:29;19.09;67.11
72591;SHT31;60625;51.212;5.952;2022-09-09T09:26:43;18.98;67.56
72591;SHT31;60625;51.212;5.952;2022-09-09T09:31:45;18.87;67.68
72591;SHT31;60625;51.212;5.952;2022-09-09T09:36:59;18.84;68.07
72591;SHT31;60625;51.212;5.952;2022-09-09T09:42:12;18.86;67.86
72591;SHT31;60625;51.212;5.952;2022-09-09T09:47:18;18.93;67.61
72591;SHT31;60625;51.212;5.952;2022-09-09T09:52:28;19.04;67.45
72591;SHT31;60625;51.212;5.952;2022-09-09T09:57:31;19.07;67.33
72591;SHT31;60625;51.212;5.952;2022-09-09T10:02:39;19.06;67.17
72591;SHT31;60625;51.212;5.952;2022-09-09T10:07:44;19.06;67.30
72591;SHT31;60625;51.212;5.952;2022-09-09T10:12:52;19.04;67.11
72591;SHT31;60625;51.212;5.952;2022-09-09T10:34:55;18.46;73.20
72591;SHT31;60625;51.212;5.952;2022-09-09T10:40:08;18.28;74.58
72591;SHT31;60625;51.212;5.952;2022-09-09T10:45:23;18.50;74.77
72591;SHT31;60625;51.212;5.952;2022-09-09T10:50:59;18.79;73.68
72591;SHT31;60625;51.212;5.952;2022-09-09T10:56:34;19.00;74.32
72591;SHT31;60625;51.212;5.952;2022-09-09T11:01:37;19.00;73.89
72591;SHT31;60625;51.212;5.952;2022-09-09T11:06:46;18.96;73.75
72591;SHT31;60625;51.212;5.952;2022-09-09T11:11:56;19.04;73.61
72591;SHT31;60625;51.212;5.952;2022-09-09T11:17:06;19.08;73.72
72591;SHT31;60625;51.212;5.952;2022-09-09T11:27:39;19.00;74.28
72591;SHT31;60625;51.212;5.952;2022-09-09T11:44:35;18.13;77.36
72591;SHT31;60625;51.212;5.952;2022-09-09T11:49:42;18.43;77.41
72591;SHT31;60625;51.212;5.952;2022-09-09T11:54:46;18.83;77.01
72591;SHT31;60625;51.212;5.952;2022-09-09T11:59:52;19.07;76.28
72591;SHT31;60625;51.212;5.952;2022-09-09T12:15:46;19.46;75.65
72591;SHT31;60625;51.212;5.952;2022-09-09T12:20:54;19.60;75.29
72591;SHT31;60625;51.212;5.952;2022-09-09T12:26:26;19.74;74.33
72591;SHT31;60625;51.212;5.952;2022-09-09T12:31:36;19.72;73.00
72591;SHT31;60625;51.212;5.952;2022-09-09T12:36:50;19.65;71.93
72591;SHT31;60625;51.212;5.952;2022-09-09T12:41:58;19.61;71.43
72591;SHT31;60625;51.212;5.952;2022-09-09T12:47:00;19.72;71.19
72591;SHT31;60625;51.212;5.952;2022-09-09T12:52:45;19.83;71.12
72591;SHT31;60625;51.212;5.952;2022-09-09T12:57:37;20.00;71.25
72591;SHT31;60625;51.212;5.952;2022-09-09T13:02:49;20.05;71.29
72591;SHT31;60625;51.212;5.952;2022-09-09T13:08:04;20.08;70.82
72591;SHT31;60625;51.212;5.952;2022-09-09T13:13:19;19.93;70.68
72591;SHT31;60625;51.212;5.952;2022-09-09T13:18:30;19.64;71.66
72591;SHT31;60625;51.212;5.952;2022-09-09T13:23:38;19.20;72.28
72591;SHT31;60625;51.212;5.952;2022-09-09T13:28:39;18.77;74.14
72591;SHT31;60625;51.212;5.952;2022-09-09T13:33:39;18.45;74.92
72591;SHT31;60625;51.212;5.952;2022-09-09T13:38:52;18.35;75.21
72591;SHT31;60625;51.212;5.952;2022-09-09T13:43:55;18.28;75.42
72591;SHT31;60625;51.212;5.952;2022-09-09T13:48:58;18.26;75.88
72591;SHT31;60625;51.212;5.952;2022-09-09T13:54:19;18.44;75.96
72591;SHT31;60625;51.212;5.952;2022-09-09T13:59:21;18.73;76.04
72591;SHT31;60625;51.212;5.952;2022-09-09T14:04:21;19.15;76.07
72591;SHT31;60625;51.212;5.952;2022-09-09T14:09:22;19.64;75.22
72591;SHT31;60625;51.212;5.952;2022-09-09T14:14:22;20.04;74.66
72591;SHT31;60625;51.212;5.952;2022-09-09T14:19:23;20.28;74.16
72591;SHT31;60625;51.212;5.952;2022-09-09T14:24:23;20.43;73.11
72591;SHT31;60625;51.212;5.952;2022-09-09T14:29:25;20.49;72.63
72591;SHT31;60625;51.212;5.952;2022-09-09T14:34:26;20.73;72.46
72591;SHT31;60625;51.212;5.952;2022-09-09T14:39:27;20.67;72.34
72591;SHT31;60625;51.212;5.952;2022-09-09T14:44:28;20.52;71.75
72591;SHT31;60625;51.212;5.952;2022-09-09T14:49:29;20.49;72.10
72591;SHT31;60625;51.212;5.952;2022-09-09T14:54:29;20.45;72.27
72591;SHT31;60625;51.212;5.952;2022-09-09T14:59:32;20.61;72.35
72591;SHT31;60625;51.212;5.952;2022-09-09T15:04:32;20.95;71.24
72591;SHT31;60625;51.212;5.952;2022-09-09T15:09:33;21.10;70.08
72591;SHT31;60625;51.212;5.952;2022-09-09T15:14:33;20.99;69.47
72591;SHT31;60625;51.212;5.952;2022-09-09T15:19:35;20.99;69.36
72591;SHT31;60625;51.212;5.952;2022-09-09T15:24:36;20.99;68.80
72591;SHT31;60625;51.212;5.952;2022-09-09T15:29:37;20.96;68.14
72591;SHT31;60625;51.212;5.952;2022-09-09T15:34:38;20.95;67.53
72591;SHT31;60625;51.212;5.952;2022-09-09T15:39:39;20.95;66.24
72591;SHT31;60625;51.212;5.952;2022-09-09T15:44:41;21.12;66.52
72591;SHT31;60625;51.212;5.952;2022-09-09T15:49:42;21.28;66.32
72591;SHT31;60625;51.212;5.952;2022-09-09T15:54:42;21.34;66.10
72591;SHT31;60625;51.212;5.952;2022-09-09T15:59:43;21.31;65.54
72591;SHT31;60625;51.212;5.952;2022-09-09T16:04:45;21.33;65.50
72591;SHT31;60625;51.212;5.952;2022-09-09T16:09:45;21.24;65.01
72591;SHT31;60625;51.212;5.952;2022-09-09T16:14:46;20.90;64.65
72591;SHT31;60625;51.212;5.952;2022-09-09T16:19:46;20.68;64.79
72591;SHT31;60625;51.212;5.952;2022-09-09T16:24:47;20.62;65.20
72591;SHT31;60625;51.212;5.952;2022-09-09T16:29:48;20.69;65.58
72591;SHT31;60625;51.212;5.952;2022-09-09T16:34:49;20.68;65.73
72591;SHT31;60625;51.212;5.952;2022-09-09T16:39:49;20.64;65.83
72591;SHT31;60625;51.212;5.952;2022-09-09T16:44:50;20.60;66.05
72591;SHT31;60625;51.212;5.952;2022-09-09T16:49:50;20.58;66.26
72591;SHT31;60625;51.212;5.952;2022-09-09T16:54:51;20.45;66.21
72591;SHT31;60625;51.212;5.952;2022-09-09T16:59:51;20.26;66.71
72591;SHT31;60625;51.212;5.952;2022-09-09T17:04:54;20.12;67.19
72591;SHT31;60625;51.212;5.952;2022-09-09T17:09:54;20.03;67.50
72591;SHT31;60625;51.212;5.952;2022-09-09T17:14:54;19.99;67.87
72591;SHT31;60625;51.212;5.952;2022-09-09T17:19:56;19.91;68.32
72591;SHT31;60625;51.212;5.952;2022-09-09T17:24:56;19.83;68.50
72591;SHT31;60625;51.212;5.952;2022-09-09T17:29:57;19.74;68.53
72591;SHT31;60625;51.212;5.952;2022-09-09T17:34:58;19.64;67.36
72591;SHT31;60625;51.212;5.952;2022-09-09T17:39:58;19.38;70.25
72591;SHT31;60625;51.212;5.952;2022-09-09T17:44:59;19.04;72.82
72591;SHT31;60625;51.212;5.952;2022-09-09T17:49:59;18.81;74.36
72591;SHT31;60625;51.212;5.952;2022-09-09T17:55:00;18.61;73.99
72591;SHT31;60625;51.212;5.952;2022-09-09T18:00:00;18.33;73.67
72591;SHT31;60625;51.212;5.952;2022-09-09T18:05:02;17.91;74.54
72591;SHT31;60625;51.212;5.952;2022-09-09T18:10:02;17.67;75.50
72591;SHT31;60625;51.212;5.952;2022-09-09T18:15:03;17.60;76.00
72591;SHT31;60625;51.212;5.952;2022-09-09T18:20:05;17.59;76.14
72591;SHT31;60625;51.212;5.952;2022-09-09T18:25:06;17.58;76.37
72591;SHT31;60625;51.212;5.952;2022-09-09T18:30:07;17.51;76.98
72591;SHT31;60625;51.212;5.952;2022-09-09T18:35:09;17.44;77.73
72591;SHT31;60625;51.212;5.952;2022-09-09T18:40:10;17.43;77.94
72591;SHT31;60625;51.212;5.952;2022-09-09T18:45:11;17.53;77.65
72591;SHT31;60625;51.212;5.952;2022-09-09T18:50:11;17.45;77.86
72591;SHT31;60625;51.212;5.952;2022-09-09T18:55:12;17.36;78.25
72591;SHT31;60625;51.212;5.952;2022-09-09T19:00:12;17.26;78.91
72591;SHT31;60625;51.212;5.952;2022-09-09T19:05:13;17.24;78.80
72591;SHT31;60625;51.212;5.952;2022-09-09T19:10:13;17.23;78.59
72591;SHT31;60625;51.212;5.952;2022-09-09T19:15:14;17.15;78.68
72591;SHT31;60625;51.212;5.952;2022-09-09T19:20:15;17.11;78.96
72591;SHT31;60625;51.212;5.952;2022-09-09T19:25:16;17.17;79.11
72591;SHT31;60625;51.212;5.952;2022-09-09T19:30:16;17.24;79.03
72591;SHT31;60625;51.212;5.952;2022-09-09T19:35:17;17.35;78.88
72591;SHT31;60625;51.212;5.952;2022-09-09T19:40:19;17.54;78.62
72591;SHT31;60625;51.212;5.952;2022-09-09T19:45:21;17.67;78.59
72591;SHT31;60625;51.212;5.952;2022-09-09T19:50:21;17.71;78.89
72591;SHT31;60625;51.212;5.952;2022-09-09T19:55:22;17.71;79.45
72591;SHT31;60625;51.212;5.952;2022-09-09T20:00:24;17.73;79.39
72591;SHT31;60625;51.212;5.952;2022-09-09T20:05:24;17.82;79.18
72591;SHT31;60625;51.212;5.952;2022-09-09T20:10:25;17.79;79.26
72591;SHT31;60625;51.212;5.952;2022-09-09T20:15:25;17.79;79.36
72591;SHT31;60625;51.212;5.952;2022-09-09T20:20:26;17.87;79.22
72591;SHT31;60625;51.212;5.952;2022-09-09T20:25:27;17.90;79.08
72591;SHT31;60625;51.212;5.952;2022-09-09T20:30:28;17.76;79.22
72591;SHT31;60625;51.212;5.952;2022-09-09T20:35:30;17.70;79.29
72591;SHT31;60625;51.212;5.952;2022-09-09T20:40:36;17.65;79.29
72591;SHT31;60625;51.212;5.952;2022-09-09T20:45:38;17.48;79.44
72591;SHT31;60625;51.212;5.952;2022-09-09T20:50:39;17.34;79.67
72591;SHT31;60625;51.212;5.952;2022-09-09T20:55:39;17.29;79.86
72591;SHT31;60625;51.212;5.952;2022-09-09T21:00:40;17.27;79.89
72591;SHT31;60625;51.212;5.952;2022-09-09T21:05:40;17.31;79.92
72591;SHT31;60625;51.212;5.952;2022-09-09T21:10:44;17.34;79.76
72591;SHT31;60625;51.212;5.952;2022-09-09T21:15:46;17.36;79.73
72591;SHT31;60625;51.212;5.952;2022-09-09T21:20:47;17.41;79.57
72591;SHT31;60625;51.212;5.952;2022-09-09T21:25:50;17.40;79.29
72591;SHT31;60625;51.212;5.952;2022-09-09T21:30:51;17.30;79.39
72591;SHT31;60625;51.212;5.952;2022-09-09T21:35:54;17.24;79.46
72591;SHT31;60625;51.212;5.952;2022-09-09T21:41:03;17.25;79.46
72591;SHT31;60625;51.212;5.952;2022-09-09T21:46:07;17.20;79.67
72591;SHT31;60625;51.212;5.952;2022-09-09T21:51:12;17.09;79.69
72591;SHT31;60625;51.212;5.952;2022-09-09T21:56:16;17.05;79.67
72591;SHT31;60625;51.212;5.952;2022-09-09T22:01:18;17.07;79.54
72591;SHT31;60625;51.212;5.952;2022-09-09T22:06:19;17.03;79.40
72591;SHT31;60625;51.212;5.952;2022-09-09T22:11:20;16.83;79.36
72591;SHT31;60625;51.212;5.952;2022-09-09T22:16:22;16.72;79.58
72591;SHT31;60625;51.212;5.952;2022-09-09T22:21:23;16.64;79.65
72591;SHT31;60625;51.212;5.952;2022-09-09T22:26:26;16.48;79.78
72591;SHT31;60625;51.212;5.952;2022-09-09T22:31:31;16.35;79.75
72591;SHT31;60625;51.212;5.952;2022-09-09T22:36:33;16.27;79.52
72591;SHT31;60625;51.212;5.952;2022-09-09T22:41:33;16.19;79.71
72591;SHT31;60625;51.212;5.952;2022-09-09T22:46:34;16.17;79.93
72591;SHT31;60625;51.212;5.952;2022-09-09T22:51:37;16.20;80.07
72591;SHT31;60625;51.212;5.952;2022-09-09T22:56:38;16.25;80.05
72591;SHT31;60625;51.212;5.952;2022-09-09T23:01:38;16.24;80.31
72591;SHT31;60625;51.212;5.952;2022-09-09T23:06:39;16.23;80.52
72591;SHT31;60625;51.212;5.952;2022-09-09T23:11:42;16.27;80.51
72591;SHT31;60625;51.212;5.952;2022-09-09T23:16:44;16.32;80.48
72591;SHT31;60625;51.212;5.952;2022-09-09T23:21:45;16.38;80.50
72591;SHT31;60625;51.212;5.952;2022-09-09T23:26:47;16.40;80.55
72591;SHT31;60625;51.212;5.952;2022-09-09T23:31:47;16.38;80.75
72591;SHT31;60625;51.212;5.952;2022-09-09T23:36:47;16.41;80.79
72591;SHT31;60625;51.212;5.952;2022-09-09T23:41:48;16.50;80.57
72591;SHT31;60625;51.212;5.952;2022-09-09T23:46:49;16.54;80.57
72591;SHT31;60625;51.212;5.952;2022-09-09T23:51:50;16.60;80.55
72591;SHT31;60625;51.212;5.952;2022-09-09T23:56:50;16.66;80.46
